Amis Wisdom Vi — 3FVW4 — position and weather

sailwx.info

Track history (hours):
 
Tides and Currents Weather Stations Pressure Air Temp Water Temp Dewpoint Dewpoint Depression Visibility Wind Speed Wind Dir Waves Ship Positions

Amis Wisdom Vi

Last reported at 2018-Jun-18 18:06 UTC. Time now 2018-Jun-22 17:04 UTC.
Position S 28°50' E 032°10'.

Length 200 m; draft 7.3 m.

Type: Cargo ship. MMSI: 371897000.

Date/timePositionNaut miles runAvg speedWind from/ knotsBaromVisibWave heightAir tempDewpointWater temp
2018-Jun-18 18:06S 28°50' E 032°10'110.5
2018-Jun-18 17:59S 28°50' E 032°09'5 9.3
2018-Jun-18 17:29S 28°48' E 032°04'2 0.1
2018-Jun-18 01:41S 28°49' E 032°03'0 0.0
2018-Jun-18 01:30S 28°49' E 032°03'  
2018-Jun-15 12:38S 28°53' E 032°09'0 0.0
2018-Jun-15 10:14S 28°53' E 032°09'0 0.1
2018-Jun-15 09:56S 28°53' E 032°09'0 0.1
2018-Jun-15 09:26S 28°53' E 032°09'0 0.0
2018-Jun-15 08:56S 28°53' E 032°09'0 0.0
2018-Jun-15 08:23S 28°53' E 032°09'0 0.0
2018-Jun-15 07:56S 28°53' E 032°09'0 0.0
2018-Jun-15 07:26S 28°53' E 032°09'0 0.0
2018-Jun-15 06:59S 28°53' E 032°09'0 0.0
2018-Jun-15 06:23S 28°53' E 032°09'0 0.1
2018-Jun-15 05:59S 28°53' E 032°09'0 0.0
2018-Jun-15 05:29S 28°53' E 032°09'0 0.0
2018-Jun-15 04:59S 28°53' E 032°09'0 0.0
2018-Jun-15 04:29S 28°53' E 032°09'0 0.0
2018-Jun-15 03:59S 28°53' E 032°09'0 0.0
2018-Jun-15 03:26S 28°53' E 032°09'0 0.0
2018-Jun-15 02:56S 28°53' E 032°09'0 0.0
2018-Jun-15 02:29S 28°53' E 032°09'0 0.0
2018-Jun-15 01:56S 28°53' E 032°09'0 0.1
2018-Jun-15 01:29S 28°53' E 032°09'0 0.0
2018-Jun-15 00:56S 28°53' E 032°09'0 0.0
2018-Jun-15 00:26S 28°53' E 032°09'0 0.1
2018-Jun-14 23:59S 28°53' E 032°09'0 0.1
2018-Jun-14 23:29S 28°53' E 032°09'0 0.0
2018-Jun-14 22:59S 28°53' E 032°09'0 0.1
2018-Jun-14 22:29S 28°53' E 032°09'0 0.1
2018-Jun-14 21:59S 28°53' E 032°09'0 0.0
2018-Jun-14 21:29S 28°53' E 032°09'0 0.1
2018-Jun-14 20:59S 28°53' E 032°09'0 0.1
2018-Jun-14 20:26S 28°53' E 032°09'0 0.1
2018-Jun-14 19:59S 28°53' E 032°09'0 0.1
2018-Jun-14 19:29S 28°53' E 032°09'0 0.2
2018-Jun-14 18:59S 28°53' E 032°09'0 0.2
2018-Jun-14 18:29S 28°53' E 032°09'0 0.2
2018-Jun-14 17:59S 28°53' E 032°09'0 0.2
2018-Jun-14 17:29S 28°53' E 032°09'0 0.2
2018-Jun-14 16:59S 28°53' E 032°09'0 0.2
2018-Jun-14 16:26S 28°53' E 032°09'0 0.2
2018-Jun-14 15:56S 28°53' E 032°09'0 0.1
2018-Jun-14 15:26S 28°53' E 032°09'0 0.0
2018-Jun-14 14:50S 28°53' E 032°09'0 0.1
2018-Jun-14 14:26S 28°53' E 032°09'0 0.1
2018-Jun-14 13:56S 28°53' E 032°09'0 0.1
2018-Jun-14 13:14S 28°53' E 032°09'0 0.0
2018-Jun-14 12:56S 28°53' E 032°09'0 0.0
2018-Jun-14 12:29S 28°53' E 032°09'0 0.1
2018-Jun-14 11:56S 28°53' E 032°09'0 0.0
2018-Jun-14 11:26S 28°53' E 032°09'0 0.0
2018-Jun-14 10:56S 28°53' E 032°09'0 0.0
2018-Jun-14 09:32S 28°53' E 032°09'0 0.1
2018-Jun-14 09:20S 28°53' E 032°09'0 0.1
2018-Jun-14 08:56S 28°53' E 032°09'0 0.0
2018-Jun-14 08:26S 28°53' E 032°09'0 0.0
2018-Jun-14 07:59S 28°53' E 032°09'0 0.1
2018-Jun-14 07:29S 28°53' E 032°09'0 0.0
2018-Jun-14 06:59S 28°53' E 032°09'0 0.5
2018-Jun-14 06:30S 28°53' E 032°09'2 4.4
2018-Jun-14 06:00S 28°53' E 032°12'4 7.3
2018-Jun-14 05:30S 28°50' E 032°14'  
Track history (hours):
 
Tides and Currents Weather Stations Pressure Air Temp Water Temp Dewpoint Dewpoint Depression Visibility Wind Speed Wind Dir Waves Ship Positions

Amis Wisdom Vi

Last reported at 2018-Jun-18 18:06 UTC. Time now 2018-Jun-22 17:04 UTC.
Position S 28°50' E 032°10'.

Length 200 m; draft 7.3 m.

Type: Cargo ship. MMSI: 371897000.

Date/timePositionNaut miles runAvg speedWind from/ knotsBaromVisibWave heightAir tempDewpointWater temp
2018-Jun-18 18:06S 28°50' E 032°10'110.5
2018-Jun-18 17:59S 28°50' E 032°09'5 9.3
2018-Jun-18 17:29S 28°48' E 032°04'2 0.1
2018-Jun-18 01:41S 28°49' E 032°03'0 0.0
2018-Jun-18 01:30S 28°49' E 032°03'  
2018-Jun-15 12:38S 28°53' E 032°09'0 0.0
2018-Jun-15 10:14S 28°53' E 032°09'0 0.1
2018-Jun-15 09:56S 28°53' E 032°09'0 0.1
2018-Jun-15 09:26S 28°53' E 032°09'0 0.0
2018-Jun-15 08:56S 28°53' E 032°09'0 0.0
2018-Jun-15 08:23S 28°53' E 032°09'0 0.0
2018-Jun-15 07:56S 28°53' E 032°09'0 0.0
2018-Jun-15 07:26S 28°53' E 032°09'0 0.0
2018-Jun-15 06:59S 28°53' E 032°09'0 0.0
2018-Jun-15 06:23S 28°53' E 032°09'0 0.1
2018-Jun-15 05:59S 28°53' E 032°09'0 0.0
2018-Jun-15 05:29S 28°53' E 032°09'0 0.0
2018-Jun-15 04:59S 28°53' E 032°09'0 0.0
2018-Jun-15 04:29S 28°53' E 032°09'0 0.0
2018-Jun-15 03:59S 28°53' E 032°09'0 0.0
2018-Jun-15 03:26S 28°53' E 032°09'0 0.0
2018-Jun-15 02:56S 28°53' E 032°09'0 0.0
2018-Jun-15 02:29S 28°53' E 032°09'0 0.0
2018-Jun-15 01:56S 28°53' E 032°09'0 0.1
2018-Jun-15 01:29S 28°53' E 032°09'0 0.0
2018-Jun-15 00:56S 28°53' E 032°09'0 0.0
2018-Jun-15 00:26S 28°53' E 032°09'0 0.1
2018-Jun-14 23:59S 28°53' E 032°09'0 0.1
2018-Jun-14 23:29S 28°53' E 032°09'0 0.0
2018-Jun-14 22:59S 28°53' E 032°09'0 0.1
2018-Jun-14 22:29S 28°53' E 032°09'0 0.1
2018-Jun-14 21:59S 28°53' E 032°09'0 0.0
2018-Jun-14 21:29S 28°53' E 032°09'0 0.1
2018-Jun-14 20:59S 28°53' E 032°09'0 0.1
2018-Jun-14 20:26S 28°53' E 032°09'0 0.1
2018-Jun-14 19:59S 28°53' E 032°09'0 0.1
2018-Jun-14 19:29S 28°53' E 032°09'0 0.2
2018-Jun-14 18:59S 28°53' E 032°09'0 0.2
2018-Jun-14 18:29S 28°53' E 032°09'0 0.2
2018-Jun-14 17:59S 28°53' E 032°09'0 0.2
2018-Jun-14 17:29S 28°53' E 032°09'0 0.2
2018-Jun-14 16:59S 28°53' E 032°09'0 0.2
2018-Jun-14 16:26S 28°53' E 032°09'0 0.2
2018-Jun-14 15:56S 28°53' E 032°09'0 0.1
2018-Jun-14 15:26S 28°53' E 032°09'0 0.0
2018-Jun-14 14:50S 28°53' E 032°09'0 0.1
2018-Jun-14 14:26S 28°53' E 032°09'0 0.1
2018-Jun-14 13:56S 28°53' E 032°09'0 0.1
2018-Jun-14 13:14S 28°53' E 032°09'0 0.0
2018-Jun-14 12:56S 28°53' E 032°09'0 0.0
2018-Jun-14 12:29S 28°53' E 032°09'0 0.1
2018-Jun-14 11:56S 28°53' E 032°09'0 0.0
2018-Jun-14 11:26S 28°53' E 032°09'0 0.0
2018-Jun-14 10:56S 28°53' E 032°09'0 0.0
2018-Jun-14 09:32S 28°53' E 032°09'0 0.1
2018-Jun-14 09:20S 28°53' E 032°09'0 0.1
2018-Jun-14 08:56S 28°53' E 032°09'0 0.0
2018-Jun-14 08:26S 28°53' E 032°09'0 0.0
2018-Jun-14 07:59S 28°53' E 032°09'0 0.1
2018-Jun-14 07:29S 28°53' E 032°09'0 0.0
2018-Jun-14 06:59S 28°53' E 032°09'0 0.5
2018-Jun-14 06:30S 28°53' E 032°09'2 4.4
2018-Jun-14 06:00S 28°53' E 032°12'4 7.3
2018-Jun-14 05:30S 28°50' E 032°14'  

Dump ship's entire track history